This is the latest recevied weather packets stored in our database for station/object BARLOW-WX. If no packets are shown the sender has not sent any weather packets the latest 10 day(s).
| Time | Temp. | Humidity | Pressure | Rain* | Wind** | Luminosity | Snow |
|---|---|---|---|---|---|---|---|
| 1777621575 | 3.89° C | 86% | 986.6 hPa | 0 mm | - | - | - |
| 1777620695 | 3.33° C | 86% | 986.6 hPa | 0 mm | - | - | - |
| 1777619775 | 3.89° C | 86% | 986.6 hPa | 0 mm | - | - | - |
| 1777618905 | 3.89° C | 86% | 986.6 hPa | 0 mm | - | - | - |
| 1777618283 | 4.44° C | 84% | 987.2 hPa | 0 mm | - | - | - |
| 1777617095 | 3.89° C | 87% | 986.2 hPa | 0 mm | - | - | - |
| 1777616176 | 4.44° C | 87% | 986.2 hPa | 0 mm | - | - | - |
| 1777615319 | 4.44° C | 87% | 986.2 hPa | 0 mm | - | - | - |
| 1777614376 | 4.44° C | 83% | 987.7 hPa | 0 mm | - | - | - |
| 1777613494 | 4.44° C | 84% | 987.1 hPa | 0 mm | - | - | - |
| 1777612579 | 4.44° C | 84% | 987.1 hPa | 0 mm | - | - | - |
| 1777611705 | 5° C | 84% | 987.1 hPa | 0 mm | - | - | - |
| 1777610776 | 5° C | 81% | 988.3 hPa | 0 mm | - | - | - |
| 1777609895 | 5° C | 78% | 987.4 hPa | 0 mm | - | - | - |
| 1777608977 | 5° C | 78% | 987.4 hPa | 0 mm | - | - | - |
| 1777608110 | 5° C | 78% | 987.4 hPa | 0 mm | - | - | - |
| 1777607177 | 5° C | 71% | 987.4 hPa | 0 mm | - | - | - |
| 1777606293 | 5.56° C | 76% | 987 hPa | 0 mm | - | - | - |
| 1777605377 | 5.56° C | 76% | 987 hPa | 0 mm | - | - | - |
| 1777604503 | 5.56° C | 76% | 987 hPa | 0 mm | - | - | - |
| 1777603577 | 6.11° C | 71% | 987.2 hPa | 0 mm | - | - | - |
| 1777602689 | 6.11° C | 71% | 987.2 hPa | 0 mm | - | - | - |
| 1777600897 | 6.11° C | 74% | 987.6 hPa | 0 mm | - | - | - |
| 1777584695 | 9.44° C | 47% | 988.9 hPa | 0 mm | - | - | - |
| 1777583780 | 8.89° C | 47% | 988.9 hPa | 0 mm | - | - | - |
* Rain latest hour (hover to see other rain measurements)
** Current wind speed in m/s (hover to see current wind gust speed)